SEU7104 HESH-EETN
Flight info
| Callsign | SEU7104 |
|---|---|
| Flight time | N/A |
| Altitude | 36000 |
| Route | KUPTI1L KUPTI L677 CVO L617 NOZ L551 ANTAR DCT RIGRO DCT ATFIR DCT OVDOT DCT VERIG DCT KELEL DCT LOGDA DCT BOKSU DCT GUNTA DCT SOKVA DCT KEMET |
| Aircraft | B738/M-SDE2E3FGHIRWXY/LB1 |
Departure
| Time | 2026-05-05 13:11 |
|---|---|
| Airport | Sharm El Sheikh International Airport (HESH) |
Arrival
| Time | N/A |
|---|---|
| Airport | Lennart Meri Tallinn Airport (EETN) |
| Time | Latitude | Longitude | Altitude | Speed | Heading |
|---|---|---|---|---|---|
| 2026-05-05 12:44 | 27.98029 | 34.38955 | 133 ft | 0 kts | 315° |
| 2026-05-05 13:04 | 27.98030 | 34.38955 | 133 ft | 0 kts | 315° |
| 2026-05-05 13:04 | 27.98041 | 34.38941 | 133 ft | 5 kts | 311° |
| 2026-05-05 13:04 | 27.98040 | 34.38904 | 133 ft | 7 kts | 242° |
| 2026-05-05 13:05 | 27.98005 | 34.38865 | 133 ft | 1 kts | 226° |
| 2026-05-05 13:05 | 27.97986 | 34.38854 | 133 ft | 5 kts | 186° |
| 2026-05-05 13:05 | 27.97944 | 34.38882 | 133 ft | 9 kts | 132° |
| 2026-05-05 13:05 | 27.97888 | 34.38952 | 134 ft | 14 kts | 133° |
| 2026-05-05 13:06 | 27.97832 | 34.38983 | 134 ft | 7 kts | 204° |
| 2026-05-05 13:06 | 27.97781 | 34.38935 | 134 ft | 12 kts | 223° |
| 2026-05-05 13:06 | 27.97706 | 34.38857 | 135 ft | 17 kts | 224° |
| 2026-05-05 13:06 | 27.97607 | 34.38752 | 136 ft | 22 kts | 223° |
| 2026-05-05 13:07 | 27.97485 | 34.38624 | 137 ft | 26 kts | 222° |
| 2026-05-05 13:07 | 27.97341 | 34.38475 | 138 ft | 30 kts | 222° |
| 2026-05-05 13:07 | 27.97183 | 34.38311 | 139 ft | 33 kts | 223° |
| 2026-05-05 13:07 | 27.97032 | 34.38152 | 139 ft | 21 kts | 223° |
| 2026-05-05 13:08 | 27.96971 | 34.38134 | 140 ft | 6 kts | 154° |
| 2026-05-05 13:08 | 27.96931 | 34.38178 | 140 ft | 10 kts | 133° |
| 2026-05-05 13:08 | 27.96879 | 34.38241 | 141 ft | 11 kts | 133° |
| 2026-05-05 13:08 | 27.96828 | 34.38302 | 142 ft | 11 kts | 133° |
| 2026-05-05 13:09 | 27.96779 | 34.38362 | 140 ft | 11 kts | 133° |
| 2026-05-05 13:09 | 27.96721 | 34.38433 | 133 ft | 15 kts | 131° |
| 2026-05-05 13:09 | 27.96636 | 34.38538 | 124 ft | 20 kts | 133° |
| 2026-05-05 13:09 | 27.96638 | 34.38668 | 122 ft | 9 kts | 43° |
| 2026-05-05 13:10 | 27.96666 | 34.38698 | 122 ft | 10 kts | 43° |
| 2026-05-05 13:10 | 27.96917 | 34.38958 | 124 ft | 87 kts | 43° |
| 2026-05-05 13:10 | 27.97538 | 34.39605 | 125 ft | 153 kts | 42° |
| 2026-05-05 13:10 | 27.98444 | 34.40536 | 383 ft | 192 kts | 40° |
| 2026-05-05 13:11 | 27.99495 | 34.41497 | 1158 ft | 201 kts | 28° |
| 2026-05-05 13:11 | 28.00771 | 34.41900 | 2331 ft | 178 kts | 5° |
| 2026-05-05 13:11 | 28.01901 | 34.42276 | 3255 ft | 175 kts | 28° |
| 2026-05-05 13:11 | 28.03053 | 34.42966 | 3540 ft | 198 kts | 25° |
| 2026-05-05 13:12 | 28.04349 | 34.43682 | 3776 ft | 218 kts | 24° |
| 2026-05-05 13:12 | 28.05777 | 34.44469 | 3904 ft | 236 kts | 25° |
| 2026-05-05 13:12 | 28.07278 | 34.45283 | 4262 ft | 242 kts | 25° |
| 2026-05-05 13:12 | 28.08841 | 34.46127 | 4540 ft | 256 kts | 24° |
| 2026-05-05 13:13 | 28.10486 | 34.47016 | 4956 ft | 266 kts | 24° |
| 2026-05-05 13:13 | 28.12156 | 34.47916 | 5619 ft | 266 kts | 22° |
| 2026-05-05 13:13 | 28.13944 | 34.48402 | 6190 ft | 266 kts | 359° |
| 2026-05-05 13:13 | 28.15797 | 34.48346 | 6768 ft | 267 kts | 347° |
| 2026-05-05 13:14 | 28.17428 | 34.47412 | 7272 ft | 267 kts | 313° |
| 2026-05-05 13:14 | 28.18519 | 34.45718 | 7894 ft | 266 kts | 302° |
| 2026-05-05 13:14 | 28.19505 | 34.43955 | 8605 ft | 264 kts | 301° |
| 2026-05-05 13:14 | 28.20484 | 34.42190 | 9249 ft | 265 kts | 300° |
| 2026-05-05 13:15 | 28.21467 | 34.40422 | 9941 ft | 264 kts | 300° |
| 2026-05-05 13:15 | 28.22438 | 34.38686 | 10559 ft | 264 kts | 300° |
| 2026-05-05 13:15 | 28.23431 | 34.36916 | 11056 ft | 268 kts | 300° |
| 2026-05-05 13:15 | 28.24431 | 34.35138 | 11658 ft | 268 kts | 299° |
| 2026-05-05 13:16 | 28.25446 | 34.33337 | 12165 ft | 273 kts | 299° |
| 2026-05-05 13:16 | 28.26477 | 34.31510 | 12761 ft | 275 kts | 299° |
| 2026-05-05 13:16 | 28.27512 | 34.29677 | 13431 ft | 276 kts | 298° |
| 2026-05-05 13:16 | 28.28548 | 34.27846 | 14088 ft | 274 kts | 298° |
| 2026-05-05 13:17 | 28.29589 | 34.26002 | 14549 ft | 279 kts | 298° |
| 2026-05-05 13:17 | 28.30637 | 34.24150 | 15154 ft | 277 kts | 298° |
| 2026-05-05 13:17 | 28.31686 | 34.22292 | 15671 ft | 282 kts | 298° |
| 2026-05-05 13:17 | 28.32749 | 34.20408 | 16190 ft | 284 kts | 298° |
| 2026-05-05 13:18 | 28.33816 | 34.18518 | 16774 ft | 285 kts | 298° |
| 2026-05-05 13:18 | 28.34890 | 34.16614 | 17391 ft | 289 kts | 297° |
| 2026-05-05 13:18 | 28.35969 | 34.14699 | 18123 ft | 287 kts | 298° |
| 2026-05-05 13:18 | 28.36682 | 34.13435 | 18499 ft | 288 kts | 297° |
| 2026-05-05 13:19 | 28.37770 | 34.11504 | 18970 ft | 291 kts | 298° |
| 2026-05-05 13:19 | 28.39223 | 34.08924 | 19621 ft | 295 kts | 297° |
| 2026-05-05 13:19 | 28.40334 | 34.06947 | 20022 ft | 298 kts | 297° |
| 2026-05-05 13:19 | 28.41366 | 34.04921 | 20515 ft | 297 kts | 292° |
| 2026-05-05 13:20 | 28.41989 | 34.03495 | 20776 ft | 297 kts | 291° |
| 2026-05-05 13:20 | 28.42875 | 34.01376 | 21304 ft | 297 kts | 291° |
| 2026-05-05 13:20 | 28.43754 | 33.99249 | 21832 ft | 298 kts | 291° |
| 2026-05-05 13:20 | 28.44638 | 33.97107 | 22275 ft | 301 kts | 291° |
| 2026-05-05 13:21 | 28.45523 | 33.94971 | 22710 ft | 303 kts | 292° |
| 2026-05-05 13:21 | 28.46430 | 33.92790 | 23157 ft | 305 kts | 291° |
| 2026-05-05 13:21 | 28.47340 | 33.90613 | 23662 ft | 306 kts | 291° |
| 2026-05-05 13:21 | 28.48257 | 33.88419 | 24046 ft | 308 kts | 291° |
| 2026-05-05 13:22 | 28.49180 | 33.86209 | 24414 ft | 310 kts | 290° |
| 2026-05-05 13:22 | 28.50111 | 33.83979 | 24762 ft | 313 kts | 291° |
| 2026-05-05 13:22 | 28.51049 | 33.81738 | 25140 ft | 314 kts | 291° |
| 2026-05-05 13:22 | 28.51978 | 33.79516 | 25516 ft | 315 kts | 291° |
| 2026-05-05 13:23 | 28.52920 | 33.77261 | 25892 ft | 317 kts | 291° |
| 2026-05-05 13:23 | 28.53869 | 33.74987 | 26229 ft | 320 kts | 291° |
| 2026-05-05 13:23 | 28.54825 | 33.72697 | 26638 ft | 319 kts | 291° |
| 2026-05-05 13:23 | 28.55775 | 33.70424 | 27129 ft | 316 kts | 291° |
| 2026-05-05 13:24 | 28.56715 | 33.68173 | 27580 ft | 315 kts | 291° |
| 2026-05-05 13:24 | 28.57655 | 33.65915 | 27948 ft | 315 kts | 291° |
| 2026-05-05 13:24 | 28.58593 | 33.63663 | 28343 ft | 314 kts | 290° |
| 2026-05-05 13:24 | 28.59529 | 33.61413 | 28765 ft | 314 kts | 291° |
| 2026-05-05 13:25 | 28.60461 | 33.59174 | 29163 ft | 313 kts | 291° |
| 2026-05-05 13:25 | 28.61379 | 33.56967 | 29547 ft | 311 kts | 291° |
| 2026-05-05 13:25 | 28.62306 | 33.54741 | 29894 ft | 311 kts | 292° |
| 2026-05-05 13:25 | 28.63396 | 33.52600 | 30205 ft | 315 kts | 300° |
| 2026-05-05 13:26 | 28.64743 | 33.50615 | 30505 ft | 316 kts | 302° |
| 2026-05-05 13:26 | 28.66127 | 33.48671 | 30798 ft | 316 kts | 302° |
| 2026-05-05 13:26 | 28.67518 | 33.46733 | 31068 ft | 316 kts | 302° |
| 2026-05-05 13:26 | 28.68903 | 33.44802 | 31343 ft | 314 kts | 302° |
| 2026-05-05 13:27 | 28.70289 | 33.42863 | 31586 ft | 314 kts | 302° |
| 2026-05-05 13:27 | 28.71667 | 33.40930 | 31779 ft | 315 kts | 302° |
| 2026-05-05 13:27 | 28.73047 | 33.38988 | 31995 ft | 315 kts | 302° |
| 2026-05-05 13:27 | 28.74424 | 33.37048 | 32208 ft | 315 kts | 302° |
| 2026-05-05 13:28 | 28.75801 | 33.35104 | 32423 ft | 314 kts | 302° |
| 2026-05-05 13:28 | 28.77173 | 33.33165 | 32610 ft | 315 kts | 302° |
| 2026-05-05 13:28 | 28.78532 | 33.31241 | 32721 ft | 318 kts | 302° |
| 2026-05-05 13:28 | 28.79949 | 33.29225 | 32361 ft | 335 kts | 302° |
| 2026-05-05 13:29 | 28.81432 | 33.27115 | 32176 ft | 346 kts | 302° |
| 2026-05-05 13:29 | 28.82960 | 33.24946 | 32167 ft | 353 kts | 302° |
| 2026-05-05 13:29 | 28.86085 | 33.20519 | 32365 ft | 362 kts | 303° |
| 2026-05-05 13:30 | 28.87665 | 33.18283 | 32585 ft | 362 kts | 303° |
| 2026-05-05 13:30 | 28.89247 | 33.16041 | 32811 ft | 363 kts | 302° |
| 2026-05-05 13:30 | 28.90834 | 33.13791 | 33003 ft | 364 kts | 302° |
| 2026-05-05 13:30 | 28.92423 | 33.11533 | 33174 ft | 365 kts | 302° |
| 2026-05-05 13:31 | 28.94017 | 33.09267 | 33356 ft | 366 kts | 302° |
| 2026-05-05 13:31 | 28.95612 | 33.06998 | 33536 ft | 367 kts | 302° |
| 2026-05-05 13:31 | 28.97215 | 33.04715 | 33711 ft | 368 kts | 302° |
| 2026-05-05 13:31 | 28.98799 | 33.02458 | 33878 ft | 369 kts | 302° |
| 2026-05-05 13:32 | 29.00406 | 33.00169 | 34039 ft | 370 kts | 302° |
| 2026-05-05 13:32 | 29.02018 | 32.97868 | 34179 ft | 371 kts | 302° |
| 2026-05-05 13:32 | 29.03636 | 32.95560 | 34317 ft | 372 kts | 302° |
| 2026-05-05 13:32 | 29.05254 | 32.93250 | 34455 ft | 373 kts | 302° |
| 2026-05-05 13:33 | 29.06881 | 32.90926 | 34583 ft | 374 kts | 302° |
| 2026-05-05 13:33 | 29.08506 | 32.88603 | 34706 ft | 375 kts | 302° |
| 2026-05-05 13:33 | 29.10135 | 32.86272 | 34833 ft | 376 kts | 302° |
| 2026-05-05 13:33 | 29.11770 | 32.83933 | 34934 ft | 377 kts | 302° |
| 2026-05-05 13:34 | 29.15055 | 32.79228 | 35138 ft | 380 kts | 302° |
| 2026-05-05 13:34 | 29.16705 | 32.76861 | 35241 ft | 381 kts | 302° |
| 2026-05-05 13:34 | 29.18359 | 32.74490 | 35349 ft | 382 kts | 302° |
| 2026-05-05 13:35 | 29.21681 | 32.69721 | 35527 ft | 384 kts | 302° |
| 2026-05-05 13:35 | 29.23349 | 32.67324 | 35633 ft | 385 kts | 302° |
| 2026-05-05 13:35 | 29.25001 | 32.64949 | 35722 ft | 386 kts | 302° |
| 2026-05-05 13:36 | 29.28361 | 32.60114 | 35910 ft | 388 kts | 302° |
| 2026-05-05 13:36 | 29.30035 | 32.57691 | 36023 ft | 388 kts | 302° |
| 2026-05-05 13:36 | 29.31711 | 32.55251 | 36034 ft | 390 kts | 302° |
| 2026-05-05 13:37 | 29.35075 | 32.50341 | 36051 ft | 393 kts | 302° |
| 2026-05-05 13:37 | 29.38464 | 32.45390 | 36048 ft | 396 kts | 302° |
| 2026-05-05 13:38 | 29.41878 | 32.40401 | 36049 ft | 398 kts | 302° |
| 2026-05-05 13:38 | 29.45264 | 32.35454 | 36030 ft | 390 kts | 302° |
| 2026-05-05 13:39 | 29.48583 | 32.30597 | 36048 ft | 385 kts | 302° |
| 2026-05-05 13:39 | 29.51880 | 32.25760 | 36049 ft | 384 kts | 302° |
| 2026-05-05 13:40 | 29.55148 | 32.20960 | 36067 ft | 384 kts | 302° |
| 2026-05-05 13:40 | 29.58435 | 32.16127 | 36053 ft | 384 kts | 302° |
| 2026-05-05 13:41 | 29.61727 | 32.11281 | 36059 ft | 384 kts | 302° |
| 2026-05-05 13:41 | 29.64999 | 32.06460 | 36049 ft | 385 kts | 302° |
| 2026-05-05 13:42 | 29.68292 | 32.01602 | 36060 ft | 385 kts | 302° |
| 2026-05-05 13:42 | 29.71590 | 31.96731 | 36056 ft | 387 kts | 302° |
| 2026-05-05 13:43 | 29.74897 | 31.91840 | 36059 ft | 387 kts | 302° |
| 2026-05-05 13:43 | 29.78208 | 31.86940 | 36065 ft | 388 kts | 302° |
| 2026-05-05 13:44 | 29.81445 | 31.81975 | 36061 ft | 388 kts | 301° |
| 2026-05-05 13:44 | 29.84648 | 31.76969 | 36072 ft | 387 kts | 301° |
| 2026-05-05 13:45 | 29.87851 | 31.71980 | 36060 ft | 387 kts | 301° |
| 2026-05-05 13:45 | 29.91050 | 31.67004 | 36069 ft | 386 kts | 301° |
| 2026-05-05 13:46 | 29.94245 | 31.62047 | 36062 ft | 384 kts | 301° |
| 2026-05-05 13:46 | 29.97431 | 31.57110 | 36043 ft | 383 kts | 301° |
| 2026-05-05 13:47 | 30.00602 | 31.52187 | 36048 ft | 382 kts | 301° |
| 2026-05-05 13:47 | 30.03748 | 31.47295 | 36052 ft | 381 kts | 301° |
| 2026-05-05 13:48 | 30.06900 | 31.42388 | 36051 ft | 380 kts | 301° |
| 2026-05-05 13:48 | 30.10231 | 31.37618 | 36038 ft | 386 kts | 310° |
| 2026-05-05 13:49 | 30.14185 | 31.33395 | 36050 ft | 387 kts | 310° |
| 2026-05-05 13:49 | 30.18149 | 31.29189 | 36049 ft | 387 kts | 310° |
| 2026-05-05 13:50 | 30.22101 | 31.24968 | 36051 ft | 387 kts | 310° |
| 2026-05-05 13:50 | 30.26051 | 31.20729 | 36050 ft | 387 kts | 310° |
| 2026-05-05 13:51 | 30.30000 | 31.16482 | 36049 ft | 387 kts | 310° |
| 2026-05-05 13:51 | 30.33922 | 31.12256 | 36052 ft | 388 kts | 310° |
| 2026-05-05 13:52 | 30.37872 | 31.07996 | 36052 ft | 388 kts | 310° |
| 2026-05-05 13:52 | 30.41826 | 31.03727 | 36050 ft | 388 kts | 310° |
| 2026-05-05 13:53 | 30.45778 | 30.99455 | 36048 ft | 388 kts | 310° |
| 2026-05-05 13:53 | 30.49727 | 30.95182 | 36055 ft | 388 kts | 310° |
| 2026-05-05 13:54 | 30.53672 | 30.90907 | 36055 ft | 387 kts | 310° |
| 2026-05-05 13:54 | 30.57609 | 30.86637 | 36057 ft | 387 kts | 310° |
| 2026-05-05 13:55 | 30.61508 | 30.82403 | 36059 ft | 386 kts | 310° |
| 2026-05-05 13:55 | 30.65420 | 30.78150 | 36064 ft | 385 kts | 310° |
| 2026-05-05 13:56 | 30.69324 | 30.73900 | 36059 ft | 384 kts | 310° |
| 2026-05-05 13:56 | 30.73212 | 30.69663 | 36068 ft | 383 kts | 310° |
| 2026-05-05 13:57 | 30.77090 | 30.65431 | 36065 ft | 382 kts | 310° |
| 2026-05-05 13:57 | 30.80959 | 30.61205 | 36067 ft | 381 kts | 310° |
| 2026-05-05 13:58 | 30.84819 | 30.56983 | 36072 ft | 380 kts | 310° |
| 2026-05-05 13:58 | 30.88672 | 30.52764 | 36076 ft | 380 kts | 310° |
| 2026-05-05 13:59 | 30.94431 | 30.46449 | 36073 ft | 380 kts | 310° |
| 2026-05-05 14:00 | 30.99553 | 30.40822 | 36075 ft | 380 kts | 310° |
| 2026-05-05 14:00 | 31.04053 | 30.35872 | 36082 ft | 381 kts | 310° |
| 2026-05-05 14:01 | 31.07699 | 30.31434 | 36080 ft | 375 kts | 301° |
| 2026-05-05 14:01 | 31.10288 | 30.26211 | 36089 ft | 370 kts | 289° |
| 2026-05-05 14:02 | 31.11898 | 30.20532 | 36092 ft | 369 kts | 285° |
| 2026-05-05 14:02 | 31.13433 | 30.14812 | 36101 ft | 369 kts | 286° |
| 2026-05-05 14:03 | 31.14987 | 30.09090 | 36101 ft | 370 kts | 286° |
| 2026-05-05 14:03 | 31.16550 | 30.03365 | 36103 ft | 370 kts | 286° |
| 2026-05-05 14:04 | 31.18399 | 29.97805 | 36098 ft | 374 kts | 300° |
| 2026-05-05 14:04 | 31.21890 | 29.93246 | 36105 ft | 384 kts | 317° |
| 2026-05-05 14:05 | 31.26596 | 29.90083 | 36106 ft | 392 kts | 325° |
| 2026-05-05 14:05 | 31.30622 | 29.87636 | 36112 ft | 392 kts | 325° |
| 2026-05-05 14:06 | 31.35464 | 29.84670 | 36093 ft | 392 kts | 325° |
| 2026-05-05 14:06 | 31.40282 | 29.81676 | 36098 ft | 392 kts | 324° |
| 2026-05-05 14:07 | 31.45089 | 29.78666 | 36097 ft | 392 kts | 324° |
| 2026-05-05 14:07 | 31.49897 | 29.75650 | 36094 ft | 391 kts | 324° |
| 2026-05-05 14:08 | 31.54692 | 29.72637 | 36093 ft | 391 kts | 324° |
| 2026-05-05 14:08 | 31.59482 | 29.69624 | 36094 ft | 390 kts | 324° |
| 2026-05-05 14:09 | 31.64272 | 29.66607 | 36086 ft | 390 kts | 324° |
| 2026-05-05 14:09 | 31.69046 | 29.63597 | 36090 ft | 389 kts | 324° |
| 2026-05-05 14:10 | 31.73791 | 29.60602 | 36092 ft | 389 kts | 324° |
| 2026-05-05 14:10 | 31.78558 | 29.57589 | 36089 ft | 389 kts | 324° |
| 2026-05-05 14:11 | 31.83317 | 29.54578 | 36089 ft | 388 kts | 325° |
| 2026-05-05 14:11 | 31.88078 | 29.51561 | 36090 ft | 388 kts | 325° |
| 2026-05-05 14:12 | 31.92835 | 29.48544 | 36094 ft | 388 kts | 325° |
| 2026-05-05 14:12 | 31.97599 | 29.45519 | 36090 ft | 389 kts | 325° |
| 2026-05-05 14:13 | 32.02329 | 29.42510 | 36091 ft | 389 kts | 325° |
| 2026-05-05 14:13 | 32.07086 | 29.39471 | 36093 ft | 389 kts | 325° |
| 2026-05-05 14:14 | 32.11844 | 29.36426 | 36092 ft | 389 kts | 325° |
| 2026-05-05 14:14 | 32.16605 | 29.33376 | 36086 ft | 389 kts | 325° |
| 2026-05-05 14:15 | 32.21366 | 29.30324 | 36083 ft | 389 kts | 325° |
| 2026-05-05 14:15 | 32.26133 | 29.27271 | 36082 ft | 389 kts | 325° |
| 2026-05-05 14:16 | 32.30897 | 29.24219 | 36085 ft | 389 kts | 326° |
| 2026-05-05 14:16 | 32.35661 | 29.21162 | 36086 ft | 389 kts | 326° |
| 2026-05-05 14:17 | 32.40395 | 29.18121 | 36085 ft | 389 kts | 326° |
| 2026-05-05 14:17 | 32.45157 | 29.15057 | 36082 ft | 389 kts | 326° |
| 2026-05-05 14:18 | 32.49913 | 29.11993 | 36083 ft | 389 kts | 326° |
| 2026-05-05 14:18 | 32.54676 | 29.08921 | 36081 ft | 389 kts | 326° |
| 2026-05-05 14:19 | 32.59434 | 29.05849 | 36081 ft | 389 kts | 326° |
| 2026-05-05 14:19 | 32.64188 | 29.02775 | 36080 ft | 389 kts | 326° |
| 2026-05-05 14:20 | 32.68939 | 28.99699 | 36088 ft | 389 kts | 326° |
| 2026-05-05 14:20 | 32.73653 | 28.96644 | 36083 ft | 389 kts | 326° |
| 2026-05-05 14:21 | 32.78429 | 28.93544 | 36079 ft | 388 kts | 326° |
| 2026-05-05 14:21 | 32.83143 | 28.90482 | 36077 ft | 388 kts | 326° |
| 2026-05-05 14:22 | 32.87889 | 28.87394 | 36076 ft | 388 kts | 326° |
| 2026-05-05 14:22 | 32.92625 | 28.84310 | 36079 ft | 388 kts | 326° |
| 2026-05-05 14:23 | 32.97363 | 28.81220 | 36082 ft | 388 kts | 326° |
| 2026-05-05 14:23 | 33.02099 | 28.78127 | 36079 ft | 388 kts | 326° |
| 2026-05-05 14:24 | 33.06830 | 28.75035 | 36077 ft | 388 kts | 326° |
| 2026-05-05 14:24 | 33.11561 | 28.71938 | 36078 ft | 388 kts | 326° |
| 2026-05-05 14:25 | 33.16286 | 28.68842 | 36077 ft | 387 kts | 326° |
| 2026-05-05 14:25 | 33.20979 | 28.65762 | 36077 ft | 388 kts | 326° |
| 2026-05-05 14:26 | 33.25742 | 28.62630 | 36084 ft | 393 kts | 326° |
| 2026-05-05 14:26 | 33.30571 | 28.59452 | 36087 ft | 398 kts | 327° |
| 2026-05-05 14:27 | 33.35459 | 28.56232 | 36084 ft | 403 kts | 327° |
| 2026-05-05 14:27 | 33.40413 | 28.52965 | 36083 ft | 408 kts | 327° |
| 2026-05-05 14:28 | 33.45409 | 28.49667 | 36075 ft | 411 kts | 327° |
| 2026-05-05 14:28 | 33.50432 | 28.46346 | 36074 ft | 413 kts | 327° |
| 2026-05-05 14:29 | 33.55432 | 28.43036 | 36072 ft | 413 kts | 327° |
| 2026-05-05 14:29 | 33.60463 | 28.39701 | 36071 ft | 413 kts | 327° |
| 2026-05-05 14:30 | 33.65480 | 28.36370 | 36067 ft | 412 kts | 327° |
| 2026-05-05 14:30 | 33.70486 | 28.33041 | 36066 ft | 411 kts | 327° |
| 2026-05-05 14:31 | 33.75482 | 28.29714 | 36070 ft | 410 kts | 327° |
| 2026-05-05 14:31 | 33.80462 | 28.26397 | 36068 ft | 409 kts | 328° |
| 2026-05-05 14:32 | 33.85540 | 28.23274 | 36069 ft | 409 kts | 329° |
| 2026-05-05 14:32 | 33.90622 | 28.20280 | 36066 ft | 409 kts | 330° |
| 2026-05-05 14:33 | 33.95718 | 28.17258 | 36064 ft | 408 kts | 329° |
| 2026-05-05 14:33 | 34.00805 | 28.14211 | 36067 ft | 408 kts | 329° |
| 2026-05-05 14:34 | 34.05883 | 28.11154 | 36065 ft | 407 kts | 329° |
| 2026-05-05 14:34 | 34.10961 | 28.08090 | 36065 ft | 407 kts | 329° |
| 2026-05-05 14:35 | 34.16030 | 28.05027 | 36062 ft | 408 kts | 330° |
| 2026-05-05 14:35 | 34.21106 | 28.01956 | 36064 ft | 408 kts | 330° |
| 2026-05-05 14:36 | 34.26180 | 27.98882 | 36057 ft | 408 kts | 330° |
| 2026-05-05 14:36 | 34.31230 | 27.95818 | 36063 ft | 409 kts | 330° |
| 2026-05-05 14:37 | 34.36314 | 27.92729 | 36069 ft | 409 kts | 330° |
| 2026-05-05 14:37 | 34.41409 | 27.89630 | 36062 ft | 410 kts | 330° |
| 2026-05-05 14:38 | 34.46515 | 27.86520 | 36059 ft | 410 kts | 330° |
| 2026-05-05 14:38 | 34.51627 | 27.83402 | 36057 ft | 410 kts | 330° |
| 2026-05-05 14:39 | 34.56696 | 27.80306 | 36062 ft | 410 kts | 330° |
| 2026-05-05 14:39 | 34.61795 | 27.77187 | 36060 ft | 410 kts | 330° |
| 2026-05-05 14:40 | 34.66890 | 27.74066 | 36052 ft | 410 kts | 330° |
| 2026-05-05 14:40 | 34.71993 | 27.70936 | 36055 ft | 410 kts | 330° |
| 2026-05-05 14:41 | 34.77091 | 27.67806 | 36053 ft | 410 kts | 330° |
| 2026-05-05 14:41 | 34.82176 | 27.64678 | 36053 ft | 409 kts | 330° |
| 2026-05-05 14:42 | 34.87220 | 27.61571 | 36048 ft | 409 kts | 330° |
| 2026-05-05 14:42 | 34.92299 | 27.58438 | 36048 ft | 409 kts | 330° |
| 2026-05-05 14:43 | 34.97377 | 27.55302 | 36054 ft | 409 kts | 330° |
| 2026-05-05 14:43 | 35.02450 | 27.52164 | 36052 ft | 409 kts | 330° |
| 2026-05-05 14:44 | 35.07528 | 27.49019 | 36051 ft | 409 kts | 330° |
| 2026-05-05 14:44 | 35.12569 | 27.45893 | 36050 ft | 408 kts | 330° |
| 2026-05-05 14:45 | 35.17636 | 27.42746 | 36049 ft | 408 kts | 330° |
| 2026-05-05 14:45 | 35.22704 | 27.39593 | 36050 ft | 408 kts | 330° |
| 2026-05-05 14:46 | 35.27771 | 27.36437 | 36052 ft | 409 kts | 330° |
| 2026-05-05 14:46 | 35.32841 | 27.33275 | 36049 ft | 409 kts | 330° |
| 2026-05-05 14:47 | 35.37910 | 27.30109 | 36050 ft | 409 kts | 330° |
| 2026-05-05 14:47 | 35.42991 | 27.26931 | 36052 ft | 409 kts | 330° |
| 2026-05-05 14:48 | 35.48070 | 27.23749 | 36049 ft | 410 kts | 330° |
| 2026-05-05 14:48 | 35.53125 | 27.20578 | 36056 ft | 410 kts | 330° |
| 2026-05-05 14:49 | 35.58195 | 27.17394 | 36051 ft | 409 kts | 330° |
| 2026-05-05 14:49 | 35.63249 | 27.14214 | 36038 ft | 407 kts | 330° |
| 2026-05-05 14:50 | 35.68290 | 27.11038 | 36053 ft | 407 kts | 330° |
| 2026-05-05 14:50 | 35.72487 | 27.08390 | 36052 ft | 408 kts | 330° |
| 2026-05-05 14:51 | 35.77533 | 27.05203 | 36055 ft | 408 kts | 330° |
| 2026-05-05 14:51 | 35.82593 | 27.02002 | 36052 ft | 408 kts | 330° |